Terminal Aerodrome Forecast
Issued by NWS Chicago, IL

Home | Current Version | Previous Version | Text Only | Print | Product List | Glossary Off
Versions: 1 2 3 4 5 6 7 8 9 10 11 12 13 14 15 16 17 18 19 20 21 22 23 24 25 26 27 28 29 30 31 32 33 34

000
FTUS43 KLOT 250413 AAE
TAFRFD
TAF AMD
KRFD 250413Z 2504/2524 11012G20KT P6SM -RA BKN045 OVC070
      WS020/15040KT
     FM250530 16015G20KT 3SM -RA BR BKN010 OVC015 WS020/16050KT
     FM251200 21014KT 5SM BR VCSH BKN004 OVC015
     FM251500 24014G23KT P6SM SCT005 BKN015
     FM252200 26012KT P6SM SCT015 BKN100=

USA.gov is the U.S. government's official web portal to all federal, state and local government web resources and services.